sensor_id;sensor_type;location;lat;lon;timestamp;P1;durP1;ratioP1;P2;durP2;ratioP2
14139;SDS011;7150;53.514;9.988;2023-02-20T00:00:52;3.27;;;1.70;;
14139;SDS011;7150;53.514;9.988;2023-02-20T00:03:18;4.30;;;1.50;;
14139;SDS011;7150;53.514;9.988;2023-02-20T00:05:43;4.23;;;2.50;;
14139;SDS011;7150;53.514;9.988;2023-02-20T00:08:09;6.13;;;2.30;;
14139;SDS011;7150;53.514;9.988;2023-02-20T00:10:34;5.57;;;1.90;;
14139;SDS011;7150;53.514;9.988;2023-02-20T00:13:00;4.70;;;2.30;;
14139;SDS011;7150;53.514;9.988;2023-02-20T00:15:25;6.47;;;2.13;;
14139;SDS011;7150;53.514;9.988;2023-02-20T00:17:51;6.23;;;2.00;;
14139;SDS011;7150;53.514;9.988;2023-02-20T00:20:18;3.10;;;1.70;;
14139;SDS011;7150;53.514;9.988;2023-02-20T00:22:45;4.63;;;2.10;;
14139;SDS011;7150;53.514;9.988;2023-02-20T00:25:11;5.23;;;2.30;;
14139;SDS011;7150;53.514;9.988;2023-02-20T00:27:36;7.10;;;2.30;;
14139;SDS011;7150;53.514;9.988;2023-02-20T00:30:02;4.37;;;1.80;;
14139;SDS011;7150;53.514;9.988;2023-02-20T00:32:29;6.43;;;2.23;;
14139;SDS011;7150;53.514;9.988;2023-02-20T00:34:54;4.57;;;2.00;;
14139;SDS011;7150;53.514;9.988;2023-02-20T00:37:20;7.80;;;2.00;;
14139;SDS011;7150;53.514;9.988;2023-02-20T00:39:45;4.93;;;1.87;;
14139;SDS011;7150;53.514;9.988;2023-02-20T00:42:11;7.43;;;2.20;;
14139;SDS011;7150;53.514;9.988;2023-02-20T00:44:36;6.90;;;2.03;;
14139;SDS011;7150;53.514;9.988;2023-02-20T00:47:02;5.70;;;1.80;;
14139;SDS011;7150;53.514;9.988;2023-02-20T00:49:27;5.20;;;2.07;;
14139;SDS011;7150;53.514;9.988;2023-02-20T00:51:53;5.63;;;2.00;;
14139;SDS011;7150;53.514;9.988;2023-02-20T00:54:18;4.93;;;2.23;;
14139;SDS011;7150;53.514;9.988;2023-02-20T00:56:44;6.47;;;2.50;;
14139;SDS011;7150;53.514;9.988;2023-02-20T00:59:10;4.67;;;2.07;;
14139;SDS011;7150;53.514;9.988;2023-02-20T01:01:35;2.83;;;1.83;;
14139;SDS011;7150;53.514;9.988;2023-02-20T01:04:01;3.03;;;2.20;;
14139;SDS011;7150;53.514;9.988;2023-02-20T01:06:27;2.53;;;1.73;;
14139;SDS011;7150;53.514;9.988;2023-02-20T01:08:52;7.70;;;2.90;;
14139;SDS011;7150;53.514;9.988;2023-02-20T01:11:18;3.27;;;1.90;;
14139;SDS011;7150;53.514;9.988;2023-02-20T01:13:43;3.57;;;2.03;;
14139;SDS011;7150;53.514;9.988;2023-02-20T01:16:09;3.30;;;1.97;;
14139;SDS011;7150;53.514;9.988;2023-02-20T01:18:34;6.40;;;2.37;;
14139;SDS011;7150;53.514;9.988;2023-02-20T01:21:00;5.97;;;1.90;;
14139;SDS011;7150;53.514;9.988;2023-02-20T01:23:25;6.63;;;2.27;;
14139;SDS011;7150;53.514;9.988;2023-02-20T01:25:51;4.77;;;2.37;;
14139;SDS011;7150;53.514;9.988;2023-02-20T01:28:16;6.83;;;2.20;;
14139;SDS011;7150;53.514;9.988;2023-02-20T01:30:42;4.77;;;2.00;;
14139;SDS011;7150;53.514;9.988;2023-02-20T01:33:07;6.03;;;2.10;;
14139;SDS011;7150;53.514;9.988;2023-02-20T01:35:33;6.57;;;2.63;;
14139;SDS011;7150;53.514;9.988;2023-02-20T01:37:58;3.93;;;2.00;;
14139;SDS011;7150;53.514;9.988;2023-02-20T01:40:25;7.30;;;2.30;;
14139;SDS011;7150;53.514;9.988;2023-02-20T01:42:51;6.80;;;2.67;;
14139;SDS011;7150;53.514;9.988;2023-02-20T01:47:52;5.03;;;2.30;;
14139;SDS011;7150;53.514;9.988;2023-02-20T01:50:20;3.93;;;2.13;;
14139;SDS011;7150;53.514;9.988;2023-02-20T01:52:50;4.73;;;2.37;;
14139;SDS011;7150;53.514;9.988;2023-02-20T01:55:20;3.63;;;2.00;;
14139;SDS011;7150;53.514;9.988;2023-02-20T01:58:02;4.10;;;2.43;;
14139;SDS011;7150;53.514;9.988;2023-02-20T02:00:32;4.63;;;2.73;;
14139;SDS011;7150;53.514;9.988;2023-02-20T02:03:08;6.47;;;2.50;;
14139;SDS011;7150;53.514;9.988;2023-02-20T02:05:37;6.53;;;2.67;;
14139;SDS011;7150;53.514;9.988;2023-02-20T02:08:06;4.50;;;2.53;;
14139;SDS011;7150;53.514;9.988;2023-02-20T02:10:38;4.70;;;2.83;;
14139;SDS011;7150;53.514;9.988;2023-02-20T02:13:13;4.00;;;2.30;;
14139;SDS011;7150;53.514;9.988;2023-02-20T02:15:38;6.43;;;2.67;;
14139;SDS011;7150;53.514;9.988;2023-02-20T02:18:22;5.40;;;2.90;;
14139;SDS011;7150;53.514;9.988;2023-02-20T02:24:09;3.27;;;2.40;;
14139;SDS011;7150;53.514;9.988;2023-02-20T02:26:52;4.57;;;2.30;;
14139;SDS011;7150;53.514;9.988;2023-02-20T02:35:39;5.40;;;2.90;;
14139;SDS011;7150;53.514;9.988;2023-02-20T02:38:24;5.20;;;2.97;;
14139;SDS011;7150;53.514;9.988;2023-02-20T02:41:06;6.10;;;3.00;;
14139;SDS011;7150;53.514;9.988;2023-02-20T02:44:05;6.93;;;3.03;;
14139;SDS011;7150;53.514;9.988;2023-02-20T02:46:55;6.63;;;3.23;;
14139;SDS011;7150;53.514;9.988;2023-02-20T02:49:39;7.57;;;3.40;;
14139;SDS011;7150;53.514;9.988;2023-02-20T02:52:12;4.97;;;3.30;;
14139;SDS011;7150;53.514;9.988;2023-02-20T02:54:59;5.30;;;3.10;;
14139;SDS011;7150;53.514;9.988;2023-02-20T02:57:25;4.90;;;2.97;;
14139;SDS011;7150;53.514;9.988;2023-02-20T02:59:57;4.90;;;2.97;;
14139;SDS011;7150;53.514;9.988;2023-02-20T03:06:05;3.93;;;2.80;;
14139;SDS011;7150;53.514;9.988;2023-02-20T03:08:43;5.67;;;3.50;;
14139;SDS011;7150;53.514;9.988;2023-02-20T03:11:15;7.37;;;3.17;;
14139;SDS011;7150;53.514;9.988;2023-02-20T03:13:56;8.00;;;3.73;;
14139;SDS011;7150;53.514;9.988;2023-02-20T03:16:56;7.10;;;3.50;;
14139;SDS011;7150;53.514;9.988;2023-02-20T03:19:37;4.10;;;3.27;;
14139;SDS011;7150;53.514;9.988;2023-02-20T03:22:12;6.13;;;3.50;;
14139;SDS011;7150;53.514;9.988;2023-02-20T03:24:43;6.60;;;3.40;;
14139;SDS011;7150;53.514;9.988;2023-02-20T03:29:54;5.13;;;3.30;;
14139;SDS011;7150;53.514;9.988;2023-02-20T03:32:22;8.47;;;3.83;;
14139;SDS011;7150;53.514;9.988;2023-02-20T03:35:10;5.87;;;3.70;;
14139;SDS011;7150;53.514;9.988;2023-02-20T03:37:56;7.93;;;3.87;;
14139;SDS011;7150;53.514;9.988;2023-02-20T03:40:45;6.50;;;3.80;;
14139;SDS011;7150;53.514;9.988;2023-02-20T03:43:30;7.37;;;4.00;;
14139;SDS011;7150;53.514;9.988;2023-02-20T03:45:58;5.60;;;3.63;;
14139;SDS011;7150;53.514;9.988;2023-02-20T03:48:28;7.07;;;3.43;;
14139;SDS011;7150;53.514;9.988;2023-02-20T03:50:58;7.17;;;3.90;;
14139;SDS011;7150;53.514;9.988;2023-02-20T03:53:43;5.03;;;3.63;;
14139;SDS011;7150;53.514;9.988;2023-02-20T03:56:29;6.83;;;3.50;;
14139;SDS011;7150;53.514;9.988;2023-02-20T03:59:05;9.63;;;4.33;;
14139;SDS011;7150;53.514;9.988;2023-02-20T04:01:45;8.17;;;3.87;;
14139;SDS011;7150;53.514;9.988;2023-02-20T04:04:15;8.30;;;4.47;;
14139;SDS011;7150;53.514;9.988;2023-02-20T04:06:45;5.60;;;3.70;;
14139;SDS011;7150;53.514;9.988;2023-02-20T04:09:16;10.70;;;4.10;;
14139;SDS011;7150;53.514;9.988;2023-02-20T04:12:21;6.53;;;3.80;;
14139;SDS011;7150;53.514;9.988;2023-02-20T04:14:43;8.57;;;4.47;;
14139;SDS011;7150;53.514;9.988;2023-02-20T04:17:12;7.23;;;4.17;;
14139;SDS011;7150;53.514;9.988;2023-02-20T04:19:41;9.23;;;4.77;;
14139;SDS011;7150;53.514;9.988;2023-02-20T04:22:08;7.40;;;4.57;;
14139;SDS011;7150;53.514;9.988;2023-02-20T04:24:40;6.60;;;4.10;;
14139;SDS011;7150;53.514;9.988;2023-02-20T04:27:08;7.17;;;3.90;;
14139;SDS011;7150;53.514;9.988;2023-02-20T04:29:34;9.63;;;3.83;;
14139;SDS011;7150;53.514;9.988;2023-02-20T04:32:00;8.10;;;4.60;;
14139;SDS011;7150;53.514;9.988;2023-02-20T04:34:25;8.63;;;4.37;;
14139;SDS011;7150;53.514;9.988;2023-02-20T04:36:59;9.00;;;4.63;;
14139;SDS011;7150;53.514;9.988;2023-02-20T04:39:39;6.57;;;4.00;;
14139;SDS011;7150;53.514;9.988;2023-02-20T04:42:04;8.97;;;4.80;;
14139;SDS011;7150;53.514;9.988;2023-02-20T04:44:30;5.70;;;4.10;;
14139;SDS011;7150;53.514;9.988;2023-02-20T04:46:56;7.80;;;4.50;;
14139;SDS011;7150;53.514;9.988;2023-02-20T04:49:23;8.07;;;4.90;;
14139;SDS011;7150;53.514;9.988;2023-02-20T04:51:48;7.83;;;5.17;;
14139;SDS011;7150;53.514;9.988;2023-02-20T04:54:14;6.77;;;4.50;;
14139;SDS011;7150;53.514;9.988;2023-02-20T04:56:39;8.10;;;4.83;;
14139;SDS011;7150;53.514;9.988;2023-02-20T04:59:05;8.73;;;4.53;;
14139;SDS011;7150;53.514;9.988;2023-02-20T05:01:31;8.00;;;4.87;;
14139;SDS011;7150;53.514;9.988;2023-02-20T05:03:56;6.63;;;4.40;;
14139;SDS011;7150;53.514;9.988;2023-02-20T05:06:22;9.57;;;4.47;;
14139;SDS011;7150;53.514;9.988;2023-02-20T05:08:47;9.80;;;4.83;;
14139;SDS011;7150;53.514;9.988;2023-02-20T05:11:13;10.03;;;5.97;;
14139;SDS011;7150;53.514;9.988;2023-02-20T05:13:39;9.67;;;5.93;;
14139;SDS011;7150;53.514;9.988;2023-02-20T05:16:04;8.60;;;5.53;;
14139;SDS011;7150;53.514;9.988;2023-02-20T05:18:30;9.97;;;5.77;;
14139;SDS011;7150;53.514;9.988;2023-02-20T05:20:56;13.03;;;5.50;;
14139;SDS011;7150;53.514;9.988;2023-02-20T05:23:40;10.47;;;5.67;;
14139;SDS011;7150;53.514;9.988;2023-02-20T05:26:10;9.63;;;5.47;;
14139;SDS011;7150;53.514;9.988;2023-02-20T05:28:37;7.67;;;5.60;;
14139;SDS011;7150;53.514;9.988;2023-02-20T05:31:06;8.67;;;5.60;;
14139;SDS011;7150;53.514;9.988;2023-02-20T05:33:31;9.30;;;5.70;;
14139;SDS011;7150;53.514;9.988;2023-02-20T05:35:57;11.20;;;6.67;;
14139;SDS011;7150;53.514;9.988;2023-02-20T05:38:23;12.50;;;6.77;;
14139;SDS011;7150;53.514;9.988;2023-02-20T05:40:49;11.47;;;6.87;;
14139;SDS011;7150;53.514;9.988;2023-02-20T05:43:15;11.97;;;6.63;;
14139;SDS011;7150;53.514;9.988;2023-02-20T05:45:41;11.03;;;5.80;;
14139;SDS011;7150;53.514;9.988;2023-02-20T05:48:06;9.37;;;6.40;;
14139;SDS011;7150;53.514;9.988;2023-02-20T05:50:32;13.23;;;7.53;;
14139;SDS011;7150;53.514;9.988;2023-02-20T05:52:57;10.20;;;6.83;;
14139;SDS011;7150;53.514;9.988;2023-02-20T05:55:23;9.80;;;6.30;;
14139;SDS011;7150;53.514;9.988;2023-02-20T05:57:48;10.00;;;6.27;;
14139;SDS011;7150;53.514;9.988;2023-02-20T06:00:14;10.13;;;6.10;;
14139;SDS011;7150;53.514;9.988;2023-02-20T06:02:39;11.83;;;6.77;;
14139;SDS011;7150;53.514;9.988;2023-02-20T06:05:05;13.27;;;7.43;;
14139;SDS011;7150;53.514;9.988;2023-02-20T06:07:31;11.57;;;6.73;;
14139;SDS011;7150;53.514;9.988;2023-02-20T06:09:58;14.07;;;7.53;;
14139;SDS011;7150;53.514;9.988;2023-02-20T06:12:23;13.37;;;7.00;;
14139;SDS011;7150;53.514;9.988;2023-02-20T06:14:48;13.20;;;7.63;;
14139;SDS011;7150;53.514;9.988;2023-02-20T06:17:14;12.40;;;6.90;;
14139;SDS011;7150;53.514;9.988;2023-02-20T06:19:39;12.70;;;7.10;;
14139;SDS011;7150;53.514;9.988;2023-02-20T06:22:05;11.43;;;6.87;;
14139;SDS011;7150;53.514;9.988;2023-02-20T06:24:30;15.60;;;7.27;;
14139;SDS011;7150;53.514;9.988;2023-02-20T06:26:56;13.20;;;7.33;;
14139;SDS011;7150;53.514;9.988;2023-02-20T06:29:22;11.07;;;6.40;;
14139;SDS011;7150;53.514;9.988;2023-02-20T06:31:48;12.73;;;7.77;;
14139;SDS011;7150;53.514;9.988;2023-02-20T06:34:13;15.60;;;7.63;;
14139;SDS011;7150;53.514;9.988;2023-02-20T06:36:40;17.00;;;7.80;;
14139;SDS011;7150;53.514;9.988;2023-02-20T06:39:07;13.20;;;7.37;;
14139;SDS011;7150;53.514;9.988;2023-02-20T06:41:33;13.43;;;8.53;;
14139;SDS011;7150;53.514;9.988;2023-02-20T06:43:59;13.53;;;8.03;;
14139;SDS011;7150;53.514;9.988;2023-02-20T06:46:25;13.47;;;7.00;;
14139;SDS011;7150;53.514;9.988;2023-02-20T06:48:52;12.63;;;8.00;;
14139;SDS011;7150;53.514;9.988;2023-02-20T06:51:19;14.47;;;8.30;;
14139;SDS011;7150;53.514;9.988;2023-02-20T06:53:46;14.17;;;7.77;;
14139;SDS011;7150;53.514;9.988;2023-02-20T06:56:14;16.53;;;7.90;;
14139;SDS011;7150;53.514;9.988;2023-02-20T06:58:42;15.70;;;9.27;;
14139;SDS011;7150;53.514;9.988;2023-02-20T07:01:09;15.23;;;8.63;;
14139;SDS011;7150;53.514;9.988;2023-02-20T07:03:35;16.03;;;9.23;;
14139;SDS011;7150;53.514;9.988;2023-02-20T07:06:01;16.97;;;9.87;;
14139;SDS011;7150;53.514;9.988;2023-02-20T07:08:26;14.47;;;8.63;;
14139;SDS011;7150;53.514;9.988;2023-02-20T07:10:52;17.13;;;9.37;;
14139;SDS011;7150;53.514;9.988;2023-02-20T07:13:19;15.17;;;9.37;;
14139;SDS011;7150;53.514;9.988;2023-02-20T07:15:45;18.03;;;10.33;;
14139;SDS011;7150;53.514;9.988;2023-02-20T07:18:11;15.97;;;9.27;;
14139;SDS011;7150;53.514;9.988;2023-02-20T07:20:36;16.57;;;9.57;;
14139;SDS011;7150;53.514;9.988;2023-02-20T07:23:01;16.67;;;9.73;;
14139;SDS011;7150;53.514;9.988;2023-02-20T07:25:28;15.10;;;9.50;;
14139;SDS011;7150;53.514;9.988;2023-02-20T07:27:53;16.93;;;11.17;;
14139;SDS011;7150;53.514;9.988;2023-02-20T07:30:19;18.87;;;11.00;;
14139;SDS011;7150;53.514;9.988;2023-02-20T07:32:44;19.50;;;10.60;;
14139;SDS011;7150;53.514;9.988;2023-02-20T07:35:10;16.23;;;9.87;;
14139;SDS011;7150;53.514;9.988;2023-02-20T07:37:36;19.77;;;11.43;;
14139;SDS011;7150;53.514;9.988;2023-02-20T07:40:01;19.03;;;10.83;;
14139;SDS011;7150;53.514;9.988;2023-02-20T07:42:28;20.63;;;11.43;;
14139;SDS011;7150;53.514;9.988;2023-02-20T07:44:53;21.87;;;11.77;;
14139;SDS011;7150;53.514;9.988;2023-02-20T07:47:19;17.13;;;11.10;;
14139;SDS011;7150;53.514;9.988;2023-02-20T07:49:44;17.37;;;10.93;;
14139;SDS011;7150;53.514;9.988;2023-02-20T07:52:10;18.33;;;11.33;;
14139;SDS011;7150;53.514;9.988;2023-02-20T07:54:35;26.90;;;12.13;;
14139;SDS011;7150;53.514;9.988;2023-02-20T07:57:00;19.30;;;11.60;;
14139;SDS011;7150;53.514;9.988;2023-02-20T07:59:26;19.23;;;11.70;;
14139;SDS011;7150;53.514;9.988;2023-02-20T08:01:52;17.73;;;11.67;;
14139;SDS011;7150;53.514;9.988;2023-02-20T08:04:17;19.90;;;12.13;;
14139;SDS011;7150;53.514;9.988;2023-02-20T08:06:43;22.03;;;12.87;;
14139;SDS011;7150;53.514;9.988;2023-02-20T08:09:08;20.13;;;11.23;;
14139;SDS011;7150;53.514;9.988;2023-02-20T08:11:34;20.07;;;12.13;;
14139;SDS011;7150;53.514;9.988;2023-02-20T08:14:00;22.03;;;12.77;;
14139;SDS011;7150;53.514;9.988;2023-02-20T08:16:26;22.20;;;13.13;;
14139;SDS011;7150;53.514;9.988;2023-02-20T08:18:52;22.27;;;12.30;;
14139;SDS011;7150;53.514;9.988;2023-02-20T08:21:18;21.57;;;12.70;;
14139;SDS011;7150;53.514;9.988;2023-02-20T08:23:44;21.57;;;12.43;;
14139;SDS011;7150;53.514;9.988;2023-02-20T08:26:09;19.53;;;12.50;;
14139;SDS011;7150;53.514;9.988;2023-02-20T08:28:35;23.10;;;13.07;;
14139;SDS011;7150;53.514;9.988;2023-02-20T08:31:01;20.10;;;12.87;;
14139;SDS011;7150;53.514;9.988;2023-02-20T08:33:26;25.13;;;13.10;;
14139;SDS011;7150;53.514;9.988;2023-02-20T08:35:52;25.80;;;13.23;;
14139;SDS011;7150;53.514;9.988;2023-02-20T08:38:23;23.40;;;13.33;;
14139;SDS011;7150;53.514;9.988;2023-02-20T08:40:54;24.53;;;13.43;;
14139;SDS011;7150;53.514;9.988;2023-02-20T08:43:19;24.90;;;12.97;;
14139;SDS011;7150;53.514;9.988;2023-02-20T08:45:45;29.10;;;14.30;;
14139;SDS011;7150;53.514;9.988;2023-02-20T08:48:11;25.43;;;13.50;;
14139;SDS011;7150;53.514;9.988;2023-02-20T08:50:37;23.43;;;13.10;;
14139;SDS011;7150;53.514;9.988;2023-02-20T08:53:03;23.50;;;12.83;;
14139;SDS011;7150;53.514;9.988;2023-02-20T08:55:28;30.07;;;14.77;;
14139;SDS011;7150;53.514;9.988;2023-02-20T08:57:53;27.30;;;13.83;;
14139;SDS011;7150;53.514;9.988;2023-02-20T09:00:19;26.23;;;13.67;;
14139;SDS011;7150;53.514;9.988;2023-02-20T09:02:45;25.07;;;13.13;;
14139;SDS011;7150;53.514;9.988;2023-02-20T09:05:12;30.17;;;15.03;;
14139;SDS011;7150;53.514;9.988;2023-02-20T09:07:38;31.67;;;14.50;;
14139;SDS011;7150;53.514;9.988;2023-02-20T09:10:03;29.03;;;15.00;;
14139;SDS011;7150;53.514;9.988;2023-02-20T09:12:30;28.37;;;14.90;;
14139;SDS011;7150;53.514;9.988;2023-02-20T09:14:56;26.30;;;14.80;;
14139;SDS011;7150;53.514;9.988;2023-02-20T09:17:24;30.40;;;13.93;;
14139;SDS011;7150;53.514;9.988;2023-02-20T09:19:53;29.73;;;15.57;;
14139;SDS011;7150;53.514;9.988;2023-02-20T09:22:20;26.60;;;15.53;;
14139;SDS011;7150;53.514;9.988;2023-02-20T09:24:49;28.30;;;13.93;;
14139;SDS011;7150;53.514;9.988;2023-02-20T09:27:15;32.27;;;15.60;;
14139;SDS011;7150;53.514;9.988;2023-02-20T09:29:41;30.17;;;15.57;;
14139;SDS011;7150;53.514;9.988;2023-02-20T09:32:08;36.53;;;16.13;;
14139;SDS011;7150;53.514;9.988;2023-02-20T09:34:34;31.47;;;15.13;;
14139;SDS011;7150;53.514;9.988;2023-02-20T09:36:59;27.23;;;14.57;;
14139;SDS011;7150;53.514;9.988;2023-02-20T09:39:26;35.63;;;15.23;;
14139;SDS011;7150;53.514;9.988;2023-02-20T09:44:42;30.60;;;15.30;;
14139;SDS011;7150;53.514;9.988;2023-02-20T09:49:46;30.57;;;15.47;;
14139;SDS011;7150;53.514;9.988;2023-02-20T09:52:12;30.80;;;16.57;;
14139;SDS011;7150;53.514;9.988;2023-02-20T09:54:45;27.60;;;14.47;;
14139;SDS011;7150;53.514;9.988;2023-02-20T09:57:15;30.53;;;16.03;;
14139;SDS011;7150;53.514;9.988;2023-02-20T09:59:48;29.10;;;14.33;;
14139;SDS011;7150;53.514;9.988;2023-02-20T10:02:17;28.47;;;14.90;;
14139;SDS011;7150;53.514;9.988;2023-02-20T10:04:49;34.43;;;15.70;;
14139;SDS011;7150;53.514;9.988;2023-02-20T10:07:37;29.07;;;13.73;;
14139;SDS011;7150;53.514;9.988;2023-02-20T10:10:16;25.90;;;13.73;;
14139;SDS011;7150;53.514;9.988;2023-02-20T10:18:33;33.90;;;14.00;;
14139;SDS011;7150;53.514;9.988;2023-02-20T10:24:21;28.97;;;13.10;;
14139;SDS011;7150;53.514;9.988;2023-02-20T10:27:14;26.57;;;13.03;;
14139;SDS011;7150;53.514;9.988;2023-02-20T10:29:49;30.17;;;12.90;;
14139;SDS011;7150;53.514;9.988;2023-02-20T10:32:20;25.00;;;12.77;;
14139;SDS011;7150;53.514;9.988;2023-02-20T10:34:54;22.53;;;12.43;;
14139;SDS011;7150;53.514;9.988;2023-02-20T10:37:27;26.73;;;12.17;;
14139;SDS011;7150;53.514;9.988;2023-02-20T10:40:04;23.70;;;11.37;;
14139;SDS011;7150;53.514;9.988;2023-02-20T10:42:40;23.07;;;11.43;;
14139;SDS011;7150;53.514;9.988;2023-02-20T10:45:13;20.77;;;10.93;;
14139;SDS011;7150;53.514;9.988;2023-02-20T10:47:53;27.30;;;11.50;;
14139;SDS011;7150;53.514;9.988;2023-02-20T10:50:31;16.73;;;9.93;;
14139;SDS011;7150;53.514;9.988;2023-02-20T10:53:07;16.77;;;9.03;;
14139;SDS011;7150;53.514;9.988;2023-02-20T10:55:43;19.13;;;8.30;;
14139;SDS011;7150;53.514;9.988;2023-02-20T11:01:18;18.03;;;9.10;;
14139;SDS011;7150;53.514;9.988;2023-02-20T11:03:47;20.17;;;7.50;;
14139;SDS011;7150;53.514;9.988;2023-02-20T11:06:29;17.37;;;7.53;;
14139;SDS011;7150;53.514;9.988;2023-02-20T11:09:02;11.70;;;6.70;;
14139;SDS011;7150;53.514;9.988;2023-02-20T11:11:29;15.77;;;7.67;;
14139;SDS011;7150;53.514;9.988;2023-02-20T11:14:08;12.93;;;6.63;;
14139;SDS011;7150;53.514;9.988;2023-02-20T11:16:50;12.60;;;6.70;;
14139;SDS011;7150;53.514;9.988;2023-02-20T11:19:30;11.73;;;6.80;;
14139;SDS011;7150;53.514;9.988;2023-02-20T11:22:05;11.47;;;6.77;;
14139;SDS011;7150;53.514;9.988;2023-02-20T11:24:32;12.27;;;5.60;;
14139;SDS011;7150;53.514;9.988;2023-02-20T11:27:06;17.97;;;6.67;;
14139;SDS011;7150;53.514;9.988;2023-02-20T11:32:15;11.67;;;5.70;;
14139;SDS011;7150;53.514;9.988;2023-02-20T11:34:49;10.90;;;5.60;;
14139;SDS011;7150;53.514;9.988;2023-02-20T11:37:39;13.43;;;6.27;;
14139;SDS011;7150;53.514;9.988;2023-02-20T11:40:13;12.50;;;5.53;;
14139;SDS011;7150;53.514;9.988;2023-02-20T11:43:15;12.07;;;5.53;;
14139;SDS011;7150;53.514;9.988;2023-02-20T11:45:46;12.83;;;5.50;;
14139;SDS011;7150;53.514;9.988;2023-02-20T11:48:12;9.73;;;5.10;;
14139;SDS011;7150;53.514;9.988;2023-02-20T11:53:22;7.57;;;4.33;;
14139;SDS011;7150;53.514;9.988;2023-02-20T11:56:16;11.37;;;5.03;;
14139;SDS011;7150;53.514;9.988;2023-02-20T11:58:43;9.87;;;4.37;;
14139;SDS011;7150;53.514;9.988;2023-02-20T12:01:26;12.03;;;4.87;;
14139;SDS011;7150;53.514;9.988;2023-02-20T12:03:55;11.57;;;4.73;;
14139;SDS011;7150;53.514;9.988;2023-02-20T12:09:01;11.20;;;4.20;;
14139;SDS011;7150;53.514;9.988;2023-02-20T12:11:28;10.93;;;4.37;;
14139;SDS011;7150;53.514;9.988;2023-02-20T12:13:58;10.13;;;3.73;;
14139;SDS011;7150;53.514;9.988;2023-02-20T12:18:57;8.23;;;4.07;;
14139;SDS011;7150;53.514;9.988;2023-02-20T12:24:36;7.90;;;3.77;;
14139;SDS011;7150;53.514;9.988;2023-02-20T12:27:22;7.97;;;3.37;;
14139;SDS011;7150;53.514;9.988;2023-02-20T12:38:47;9.10;;;3.60;;
14139;SDS011;7150;53.514;9.988;2023-02-20T13:00:40;8.53;;;3.13;;
14139;SDS011;7150;53.514;9.988;2023-02-20T13:03:19;7.73;;;3.67;;
14139;SDS011;7150;53.514;9.988;2023-02-20T13:06:03;8.53;;;2.63;;
14139;SDS011;7150;53.514;9.988;2023-02-20T13:08:33;7.70;;;3.10;;
14139;SDS011;7150;53.514;9.988;2023-02-20T13:11:07;7.50;;;3.10;;
14139;SDS011;7150;53.514;9.988;2023-02-20T13:16:33;7.20;;;3.23;;
14139;SDS011;7150;53.514;9.988;2023-02-20T13:19:39;5.50;;;2.77;;
14139;SDS011;7150;53.514;9.988;2023-02-20T13:22:09;8.23;;;2.80;;
14139;SDS011;7150;53.514;9.988;2023-02-20T13:24:36;10.20;;;3.27;;
14139;SDS011;7150;53.514;9.988;2023-02-20T13:27:04;6.77;;;3.10;;
14139;SDS011;7150;53.514;9.988;2023-02-20T13:29:35;8.43;;;3.60;;
14139;SDS011;7150;53.514;9.988;2023-02-20T13:32:18;9.30;;;3.40;;
14139;SDS011;7150;53.514;9.988;2023-02-20T13:34:48;6.40;;;3.20;;
14139;SDS011;7150;53.514;9.988;2023-02-20T13:39:58;10.57;;;2.90;;
14139;SDS011;7150;53.514;9.988;2023-02-20T13:45:37;6.90;;;3.27;;
14139;SDS011;7150;53.514;9.988;2023-02-20T13:51:27;8.87;;;3.67;;
14139;SDS011;7150;53.514;9.988;2023-02-20T13:53:38;5.77;;;3.27;;
14139;SDS011;7150;53.514;9.988;2023-02-20T13:56:15;7.70;;;3.20;;
14139;SDS011;7150;53.514;9.988;2023-02-20T13:58:41;8.43;;;3.53;;
14139;SDS011;7150;53.514;9.988;2023-02-20T14:01:08;9.83;;;4.60;;
14139;SDS011;7150;53.514;9.988;2023-02-20T14:03:34;8.23;;;3.60;;
14139;SDS011;7150;53.514;9.988;2023-02-20T14:06:09;8.63;;;3.20;;
14139;SDS011;7150;53.514;9.988;2023-02-20T14:08:41;9.93;;;4.00;;
14139;SDS011;7150;53.514;9.988;2023-02-20T14:13:49;8.20;;;3.43;;
14139;SDS011;7150;53.514;9.988;2023-02-20T14:18:59;6.07;;;3.10;;
14139;SDS011;7150;53.514;9.988;2023-02-20T14:21:40;9.17;;;3.53;;
14139;SDS011;7150;53.514;9.988;2023-02-20T14:26:51;7.43;;;3.60;;
14139;SDS011;7150;53.514;9.988;2023-02-20T14:31:45;9.30;;;4.00;;
14139;SDS011;7150;53.514;9.988;2023-02-20T14:34:18;7.13;;;3.37;;
14139;SDS011;7150;53.514;9.988;2023-02-20T14:42:30;11.90;;;3.63;;
14139;SDS011;7150;53.514;9.988;2023-02-20T14:45:00;8.40;;;3.20;;
14139;SDS011;7150;53.514;9.988;2023-02-20T14:47:28;6.23;;;3.30;;
14139;SDS011;7150;53.514;9.988;2023-02-20T14:50:06;9.73;;;3.70;;
14139;SDS011;7150;53.514;9.988;2023-02-20T14:52:39;9.63;;;3.63;;
14139;SDS011;7150;53.514;9.988;2023-02-20T14:55:05;7.23;;;3.73;;
14139;SDS011;7150;53.514;9.988;2023-02-20T14:57:33;10.07;;;3.40;;
14139;SDS011;7150;53.514;9.988;2023-02-20T15:02:47;6.33;;;3.10;;
14139;SDS011;7150;53.514;9.988;2023-02-20T15:05:17;9.40;;;3.50;;
14139;SDS011;7150;53.514;9.988;2023-02-20T15:07:50;7.27;;;3.43;;
14139;SDS011;7150;53.514;9.988;2023-02-20T15:13:05;5.20;;;2.97;;
14139;SDS011;7150;53.514;9.988;2023-02-20T15:15:34;7.03;;;3.57;;
14139;SDS011;7150;53.514;9.988;2023-02-20T15:18:05;7.53;;;3.03;;
14139;SDS011;7150;53.514;9.988;2023-02-20T15:23:20;10.27;;;3.43;;
14139;SDS011;7150;53.514;9.988;2023-02-20T15:25:55;7.27;;;3.47;;
14139;SDS011;7150;53.514;9.988;2023-02-20T15:28:24;9.23;;;3.33;;
14139;SDS011;7150;53.514;9.988;2023-02-20T15:33:42;11.17;;;3.20;;
14139;SDS011;7150;53.514;9.988;2023-02-20T15:36:13;9.17;;;3.37;;
14139;SDS011;7150;53.514;9.988;2023-02-20T15:38:41;10.10;;;3.47;;
14139;SDS011;7150;53.514;9.988;2023-02-20T15:41:07;11.70;;;3.17;;
14139;SDS011;7150;53.514;9.988;2023-02-20T15:43:34;8.40;;;3.13;;
14139;SDS011;7150;53.514;9.988;2023-02-20T15:45:59;4.97;;;3.30;;
14139;SDS011;7150;53.514;9.988;2023-02-20T15:48:25;7.73;;;3.57;;
14139;SDS011;7150;53.514;9.988;2023-02-20T15:50:51;8.90;;;4.50;;
14139;SDS011;7150;53.514;9.988;2023-02-20T15:53:19;6.83;;;3.40;;
14139;SDS011;7150;53.514;9.988;2023-02-20T15:55:50;7.73;;;3.40;;
14139;SDS011;7150;53.514;9.988;2023-02-20T16:01:12;10.90;;;4.00;;
14139;SDS011;7150;53.514;9.988;2023-02-20T16:03:38;12.70;;;4.33;;
14139;SDS011;7150;53.514;9.988;2023-02-20T16:06:04;12.40;;;4.00;;
14139;SDS011;7150;53.514;9.988;2023-02-20T16:08:30;14.47;;;4.23;;
14139;SDS011;7150;53.514;9.988;2023-02-20T16:10:56;9.93;;;3.97;;
14139;SDS011;7150;53.514;9.988;2023-02-20T16:13:32;8.77;;;3.83;;
14139;SDS011;7150;53.514;9.988;2023-02-20T16:16:06;9.17;;;4.37;;
14139;SDS011;7150;53.514;9.988;2023-02-20T16:18:42;11.53;;;5.57;;
14139;SDS011;7150;53.514;9.988;2023-02-20T16:21:10;11.93;;;4.60;;
14139;SDS011;7150;53.514;9.988;2023-02-20T16:23:37;8.60;;;4.60;;
14139;SDS011;7150;53.514;9.988;2023-02-20T16:26:04;9.73;;;4.50;;
14139;SDS011;7150;53.514;9.988;2023-02-20T16:28:31;9.33;;;4.43;;
14139;SDS011;7150;53.514;9.988;2023-02-20T16:30:56;11.33;;;4.90;;
14139;SDS011;7150;53.514;9.988;2023-02-20T16:33:22;11.70;;;5.03;;
14139;SDS011;7150;53.514;9.988;2023-02-20T16:35:49;9.70;;;5.50;;
14139;SDS011;7150;53.514;9.988;2023-02-20T16:38:16;11.23;;;4.87;;
14139;SDS011;7150;53.514;9.988;2023-02-20T16:40:42;10.87;;;5.83;;
14139;SDS011;7150;53.514;9.988;2023-02-20T16:43:11;8.07;;;4.80;;
14139;SDS011;7150;53.514;9.988;2023-02-20T16:45:38;7.27;;;4.50;;
14139;SDS011;7150;53.514;9.988;2023-02-20T16:48:07;11.70;;;4.50;;
14139;SDS011;7150;53.514;9.988;2023-02-20T16:50:39;10.83;;;4.80;;
14139;SDS011;7150;53.514;9.988;2023-02-20T16:53:04;8.23;;;3.77;;
14139;SDS011;7150;53.514;9.988;2023-02-20T16:55:36;8.27;;;3.77;;
14139;SDS011;7150;53.514;9.988;2023-02-20T16:58:03;5.73;;;4.47;;
14139;SDS011;7150;53.514;9.988;2023-02-20T17:00:30;7.40;;;3.77;;
14139;SDS011;7150;53.514;9.988;2023-02-20T17:03:01;9.20;;;3.77;;
14139;SDS011;7150;53.514;9.988;2023-02-20T17:05:28;8.30;;;3.43;;
14139;SDS011;7150;53.514;9.988;2023-02-20T17:07:55;9.53;;;3.87;;